sensor_id;sensor_type;location;lat;lon;timestamp;temperature;humidity
4693;DHT22;11710;48.024;16.296;2022-11-20T06:54:48;2.40;99.90
4693;DHT22;11710;48.024;16.296;2022-11-20T06:57:16;2.40;99.90
4693;DHT22;11710;48.024;16.296;2022-11-20T06:59:43;2.50;99.90
4693;DHT22;11710;48.024;16.296;2022-11-20T07:02:10;2.60;99.90
4693;DHT22;11710;48.024;16.296;2022-11-20T07:04:38;2.50;99.90
4693;DHT22;11710;48.024;16.296;2022-11-20T07:07:05;2.50;99.90
4693;DHT22;11710;48.024;16.296;2022-11-20T07:09:32;2.50;99.90
4693;DHT22;11710;48.024;16.296;2022-11-20T07:12:01;2.50;99.90
4693;DHT22;11710;48.024;16.296;2022-11-20T07:14:28;2.50;99.90
4693;DHT22;11710;48.024;16.296;2022-11-20T07:16:55;2.40;99.90
4693;DHT22;11710;48.024;16.296;2022-11-20T07:19:22;2.50;99.90
4693;DHT22;11710;48.024;16.296;2022-11-20T07:21:49;2.50;99.90
4693;DHT22;11710;48.024;16.296;2022-11-20T07:24:16;2.40;99.90
4693;DHT22;11710;48.024;16.296;2022-11-20T07:26:46;2.40;99.90
4693;DHT22;11710;48.024;16.296;2022-11-20T07:29:16;2.30;99.90
4693;DHT22;11710;48.024;16.296;2022-11-20T07:31:43;2.30;99.90
4693;DHT22;11710;48.024;16.296;2022-11-20T07:34:10;2.40;99.90
4693;DHT22;11710;48.024;16.296;2022-11-20T07:36:37;2.50;99.90
4693;DHT22;11710;48.024;16.296;2022-11-20T07:39:04;2.60;99.90
4693;DHT22;11710;48.024;16.296;2022-11-20T07:41:31;2.60;99.90
4693;DHT22;11710;48.024;16.296;2022-11-20T07:43:58;2.60;99.90
4693;DHT22;11710;48.024;16.296;2022-11-20T07:46:27;2.50;99.90
4693;DHT22;11710;48.024;16.296;2022-11-20T07:48:55;2.50;99.90
4693;DHT22;11710;48.024;16.296;2022-11-20T07:51:22;2.50;99.90
4693;DHT22;11710;48.024;16.296;2022-11-20T07:53:50;2.60;99.90
4693;DHT22;11710;48.024;16.296;2022-11-20T07:56:17;2.60;99.90
4693;DHT22;11710;48.024;16.296;2022-11-20T07:58:44;2.60;99.90
4693;DHT22;11710;48.024;16.296;2022-11-20T08:01:12;2.70;99.90
4693;DHT22;11710;48.024;16.296;2022-11-20T08:03:40;2.80;99.90
4693;DHT22;11710;48.024;16.296;2022-11-20T08:06:08;2.80;99.90
4693;DHT22;11710;48.024;16.296;2022-11-20T08:08:35;2.80;99.90
4693;DHT22;11710;48.024;16.296;2022-11-20T08:11:05;2.80;99.90
4693;DHT22;11710;48.024;16.296;2022-11-20T08:13:49;3.00;99.90
4693;DHT22;11710;48.024;16.296;2022-11-20T08:16:33;3.10;99.90
4693;DHT22;11710;48.024;16.296;2022-11-20T08:19:01;3.20;99.90
4693;DHT22;11710;48.024;16.296;2022-11-20T08:21:30;3.40;99.90
4693;DHT22;11710;48.024;16.296;2022-11-20T08:23:57;3.50;99.90
4693;DHT22;11710;48.024;16.296;2022-11-20T08:26:24;3.60;99.90
4693;DHT22;11710;48.024;16.296;2022-11-20T08:28:53;3.90;99.90
4693;DHT22;11710;48.024;16.296;2022-11-20T08:31:21;4.10;99.90
4693;DHT22;11710;48.024;16.296;2022-11-20T08:33:49;4.20;99.90
4693;DHT22;11710;48.024;16.296;2022-11-20T08:36:18;4.20;99.90
4693;DHT22;11710;48.024;16.296;2022-11-20T08:38:47;4.20;99.90
4693;DHT22;11710;48.024;16.296;2022-11-20T08:41:16;4.30;99.90
4693;DHT22;11710;48.024;16.296;2022-11-20T08:43:55;4.20;99.90
4693;DHT22;11710;48.024;16.296;2022-11-20T08:46:23;4.10;99.90
4693;DHT22;11710;48.024;16.296;2022-11-20T08:48:51;4.00;99.90
4693;DHT22;11710;48.024;16.296;2022-11-20T08:51:20;4.00;99.90
4693;DHT22;11710;48.024;16.296;2022-11-20T08:53:47;4.00;99.90
4693;DHT22;11710;48.024;16.296;2022-11-20T08:56:15;4.10;99.90
4693;DHT22;11710;48.024;16.296;2022-11-20T08:58:42;4.30;99.90
4693;DHT22;11710;48.024;16.296;2022-11-20T09:01:10;4.50;99.90
4693;DHT22;11710;48.024;16.296;2022-11-20T09:03:38;4.50;99.90
4693;DHT22;11710;48.024;16.296;2022-11-20T09:06:06;4.50;99.90
4693;DHT22;11710;48.024;16.296;2022-11-20T09:08:35;4.50;99.90
4693;DHT22;11710;48.024;16.296;2022-11-20T09:11:03;4.40;99.90
4693;DHT22;11710;48.024;16.296;2022-11-20T09:13:31;4.40;99.90
4693;DHT22;11710;48.024;16.296;2022-11-20T09:15:59;4.30;99.90
4693;DHT22;11710;48.024;16.296;2022-11-20T09:18:28;4.30;99.90
4693;DHT22;11710;48.024;16.296;2022-11-20T09:20:58;4.50;99.90
4693;DHT22;11710;48.024;16.296;2022-11-20T09:23:25;4.60;99.90
4693;DHT22;11710;48.024;16.296;2022-11-20T09:25:54;4.70;99.90
4693;DHT22;11710;48.024;16.296;2022-11-20T09:28:25;4.80;99.90
4693;DHT22;11710;48.024;16.296;2022-11-20T09:30:52;5.20;99.90
4693;DHT22;11710;48.024;16.296;2022-11-20T09:33:20;5.90;99.90
4693;DHT22;11710;48.024;16.296;2022-11-20T09:35:47;5.90;99.90
4693;DHT22;11710;48.024;16.296;2022-11-20T09:38:15;5.80;99.90
4693;DHT22;11710;48.024;16.296;2022-11-20T09:40:46;5.80;99.90
4693;DHT22;11710;48.024;16.296;2022-11-20T09:43:19;5.80;99.90
4693;DHT22;11710;48.024;16.296;2022-11-20T09:46:00;5.80;99.90
4693;DHT22;11710;48.024;16.296;2022-11-20T09:48:40;5.90;99.90
4693;DHT22;11710;48.024;16.296;2022-11-20T09:51:16;5.80;99.90
4693;DHT22;11710;48.024;16.296;2022-11-20T09:53:58;5.60;99.90
4693;DHT22;11710;48.024;16.296;2022-11-20T09:56:28;5.50;99.90
4693;DHT22;11710;48.024;16.296;2022-11-20T09:59:02;5.40;99.90
4693;DHT22;11710;48.024;16.296;2022-11-20T10:01:33;5.50;99.90
4693;DHT22;11710;48.024;16.296;2022-11-20T10:04:06;5.80;99.90
4693;DHT22;11710;48.024;16.296;2022-11-20T10:06:41;6.50;99.90
4693;DHT22;11710;48.024;16.296;2022-11-20T10:09:21;7.00;99.90
4693;DHT22;11710;48.024;16.296;2022-11-20T10:12:03;7.20;99.90
4693;DHT22;11710;48.024;16.296;2022-11-20T10:14:41;7.00;99.90
4693;DHT22;11710;48.024;16.296;2022-11-20T10:17:19;6.90;99.90
4693;DHT22;11710;48.024;16.296;2022-11-20T10:20:01;6.90;99.90
4693;DHT22;11710;48.024;16.296;2022-11-20T10:22:40;6.90;99.90
4693;DHT22;11710;48.024;16.296;2022-11-20T10:25:14;6.80;99.90
4693;DHT22;11710;48.024;16.296;2022-11-20T10:28:21;6.60;99.90
4693;DHT22;11710;48.024;16.296;2022-11-20T10:30:59;6.60;99.90
4693;DHT22;11710;48.024;16.296;2022-11-20T10:33:31;6.50;99.90
4693;DHT22;11710;48.024;16.296;2022-11-20T10:36:06;6.40;99.90
4693;DHT22;11710;48.024;16.296;2022-11-20T10:38:39;6.40;99.90
4693;DHT22;11710;48.024;16.296;2022-11-20T10:41:15;6.50;99.90
4693;DHT22;11710;48.024;16.296;2022-11-20T10:44:00;6.70;99.90
4693;DHT22;11710;48.024;16.296;2022-11-20T10:46:36;7.00;99.90
4693;DHT22;11710;48.024;16.296;2022-11-20T10:49:12;7.30;99.90
4693;DHT22;11710;48.024;16.296;2022-11-20T10:51:50;7.50;99.90
4693;DHT22;11710;48.024;16.296;2022-11-20T10:54:25;7.50;99.90
4693;DHT22;11710;48.024;16.296;2022-11-20T10:57:00;7.60;99.90
4693;DHT22;11710;48.024;16.296;2022-11-20T10:59:59;7.50;99.90
4693;DHT22;11710;48.024;16.296;2022-11-20T11:02:35;7.40;99.90
4693;DHT22;11710;48.024;16.296;2022-11-20T11:05:14;7.40;99.90
4693;DHT22;11710;48.024;16.296;2022-11-20T11:07:45;7.50;99.90
4693;DHT22;11710;48.024;16.296;2022-11-20T11:10:22;7.70;99.90
4693;DHT22;11710;48.024;16.296;2022-11-20T11:12:51;7.80;99.90
4693;DHT22;11710;48.024;16.296;2022-11-20T11:15:27;7.80;99.90
4693;DHT22;11710;48.024;16.296;2022-11-20T11:17:56;7.90;99.90
4693;DHT22;11710;48.024;16.296;2022-11-20T11:20:24;8.30;99.90
4693;DHT22;11710;48.024;16.296;2022-11-20T11:22:53;8.40;99.90
4693;DHT22;11710;48.024;16.296;2022-11-20T11:25:25;8.50;99.90
4693;DHT22;11710;48.024;16.296;2022-11-20T11:27:54;8.90;99.90
4693;DHT22;11710;48.024;16.296;2022-11-20T11:30:23;8.90;99.90
4693;DHT22;11710;48.024;16.296;2022-11-20T11:33:04;9.10;99.90
4693;DHT22;11710;48.024;16.296;2022-11-20T11:35:32;9.40;99.90
4693;DHT22;11710;48.024;16.296;2022-11-20T11:38:04;9.60;99.90
4693;DHT22;11710;48.024;16.296;2022-11-20T11:40:35;9.70;99.90
4693;DHT22;11710;48.024;16.296;2022-11-20T11:43:05;10.00;99.90
4693;DHT22;11710;48.024;16.296;2022-11-20T11:45:54;10.20;99.90
4693;DHT22;11710;48.024;16.296;2022-11-20T11:48:22;10.60;99.90
4693;DHT22;11710;48.024;16.296;2022-11-20T11:50:50;10.60;99.90
4693;DHT22;11710;48.024;16.296;2022-11-20T11:53:19;10.30;99.90
4693;DHT22;11710;48.024;16.296;2022-11-20T11:55:51;10.30;99.90
4693;DHT22;11710;48.024;16.296;2022-11-20T11:58:34;10.50;99.90
4693;DHT22;11710;48.024;16.296;2022-11-20T12:01:12;10.60;99.90
4693;DHT22;11710;48.024;16.296;2022-11-20T12:03:52;10.80;99.90
4693;DHT22;11710;48.024;16.296;2022-11-20T12:06:20;10.80;99.90
4693;DHT22;11710;48.024;16.296;2022-11-20T12:08:50;10.80;99.90
4693;DHT22;11710;48.024;16.296;2022-11-20T12:11:24;10.90;99.90
4693;DHT22;11710;48.024;16.296;2022-11-20T12:13:58;10.80;99.90
4693;DHT22;11710;48.024;16.296;2022-11-20T12:16:31;10.80;99.90
4693;DHT22;11710;48.024;16.296;2022-11-20T12:19:01;10.40;99.90
4693;DHT22;11710;48.024;16.296;2022-11-20T12:21:34;10.10;99.90
4693;DHT22;11710;48.024;16.296;2022-11-20T12:24:18;10.10;99.90
4693;DHT22;11710;48.024;16.296;2022-11-20T12:27:00;9.90;99.90
4693;DHT22;11710;48.024;16.296;2022-11-20T12:29:40;9.80;99.90
4693;DHT22;11710;48.024;16.296;2022-11-20T12:35:36;9.50;99.90
4693;DHT22;11710;48.024;16.296;2022-11-20T12:38:33;9.70;99.90
4693;DHT22;11710;48.024;16.296;2022-11-20T12:41:10;9.90;99.90
4693;DHT22;11710;48.024;16.296;2022-11-20T12:44:05;10.00;99.90
4693;DHT22;11710;48.024;16.296;2022-11-20T12:46:58;9.90;99.90
4693;DHT22;11710;48.024;16.296;2022-11-20T12:49:35;9.90;99.90
4693;DHT22;11710;48.024;16.296;2022-11-20T12:52:20;9.90;99.90
4693;DHT22;11710;48.024;16.296;2022-11-20T12:55:11;10.00;99.90
4693;DHT22;11710;48.024;16.296;2022-11-20T12:57:46;10.00;99.90
4693;DHT22;11710;48.024;16.296;2022-11-20T13:00:19;9.90;99.90
4693;DHT22;11710;48.024;16.296;2022-11-20T13:03:09;9.90;99.90
4693;DHT22;11710;48.024;16.296;2022-11-20T13:05:48;10.10;99.90
4693;DHT22;11710;48.024;16.296;2022-11-20T13:08:22;10.20;99.90
4693;DHT22;11710;48.024;16.296;2022-11-20T13:10:55;10.10;99.90
4693;DHT22;11710;48.024;16.296;2022-11-20T13:13:29;9.80;99.90
4693;DHT22;11710;48.024;16.296;2022-11-20T13:16:04;9.60;99.90
4693;DHT22;11710;48.024;16.296;2022-11-20T13:18:38;9.50;99.90
4693;DHT22;11710;48.024;16.296;2022-11-20T13:21:15;9.40;99.90
4693;DHT22;11710;48.024;16.296;2022-11-20T13:23:44;9.30;99.90
4693;DHT22;11710;48.024;16.296;2022-11-20T13:26:17;9.20;99.90
4693;DHT22;11710;48.024;16.296;2022-11-20T13:28:47;9.10;99.90
4693;DHT22;11710;48.024;16.296;2022-11-20T13:31:29;9.10;99.90
4693;DHT22;11710;48.024;16.296;2022-11-20T13:33:58;9.00;99.90
4693;DHT22;11710;48.024;16.296;2022-11-20T13:36:27;8.80;99.90
4693;DHT22;11710;48.024;16.296;2022-11-20T13:38:57;8.60;99.90
4693;DHT22;11710;48.024;16.296;2022-11-20T13:41:28;8.50;99.90
4693;DHT22;11710;48.024;16.296;2022-11-20T13:44:10;8.40;99.90
4693;DHT22;11710;48.024;16.296;2022-11-20T13:46:40;8.30;99.90
4693;DHT22;11710;48.024;16.296;2022-11-20T13:49:18;8.10;99.90
4693;DHT22;11710;48.024;16.296;2022-11-20T13:51:50;8.10;99.90
4693;DHT22;11710;48.024;16.296;2022-11-20T13:58:06;8.10;99.90
4693;DHT22;11710;48.024;16.296;2022-11-20T14:00:44;8.10;99.90
4693;DHT22;11710;48.024;16.296;2022-11-20T14:03:18;8.10;99.90
4693;DHT22;11710;48.024;16.296;2022-11-20T14:05:50;8.10;99.90
4693;DHT22;11710;48.024;16.296;2022-11-20T14:08:25;8.10;99.90
4693;DHT22;11710;48.024;16.296;2022-11-20T14:11:05;8.10;99.90
4693;DHT22;11710;48.024;16.296;2022-11-20T14:13:34;8.20;99.90
4693;DHT22;11710;48.024;16.296;2022-11-20T14:16:01;8.20;99.90
4693;DHT22;11710;48.024;16.296;2022-11-20T14:18:28;8.30;99.90
4693;DHT22;11710;48.024;16.296;2022-11-20T14:20:55;8.30;99.90
4693;DHT22;11710;48.024;16.296;2022-11-20T14:23:27;8.30;99.90
4693;DHT22;11710;48.024;16.296;2022-11-20T14:25:55;8.40;99.90
4693;DHT22;11710;48.024;16.296;2022-11-20T14:28:26;8.40;99.90
4693;DHT22;11710;48.024;16.296;2022-11-20T14:30:56;8.50;99.90
4693;DHT22;11710;48.024;16.296;2022-11-20T14:33:25;8.60;99.90
4693;DHT22;11710;48.024;16.296;2022-11-20T14:35:54;8.60;99.90
4693;DHT22;11710;48.024;16.296;2022-11-20T14:38:24;8.60;99.90
4693;DHT22;11710;48.024;16.296;2022-11-20T14:40:52;8.60;99.90
4693;DHT22;11710;48.024;16.296;2022-11-20T14:43:22;8.60;99.90
4693;DHT22;11710;48.024;16.296;2022-11-20T14:45:57;8.50;99.90
4693;DHT22;11710;48.024;16.296;2022-11-20T14:48:30;8.50;99.90
4693;DHT22;11710;48.024;16.296;2022-11-20T14:50:58;8.40;99.90
4693;DHT22;11710;48.024;16.296;2022-11-20T14:53:26;8.30;99.90
4693;DHT22;11710;48.024;16.296;2022-11-20T14:55:59;8.20;99.90
4693;DHT22;11710;48.024;16.296;2022-11-20T14:58:28;8.20;99.90
4693;DHT22;11710;48.024;16.296;2022-11-20T15:00:59;8.10;99.90
4693;DHT22;11710;48.024;16.296;2022-11-20T15:03:34;8.00;99.90
4693;DHT22;11710;48.024;16.296;2022-11-20T15:06:02;7.80;99.90
4693;DHT22;11710;48.024;16.296;2022-11-20T15:08:29;7.70;99.90
4693;DHT22;11710;48.024;16.296;2022-11-20T15:10:57;7.70;99.90
4693;DHT22;11710;48.024;16.296;2022-11-20T15:13:29;7.60;99.90
4693;DHT22;11710;48.024;16.296;2022-11-20T15:15:59;7.50;99.90
4693;DHT22;11710;48.024;16.296;2022-11-20T15:18:29;7.40;99.90
4693;DHT22;11710;48.024;16.296;2022-11-20T15:21:00;7.20;99.90
4693;DHT22;11710;48.024;16.296;2022-11-20T15:23:28;7.10;99.90
4693;DHT22;11710;48.024;16.296;2022-11-20T15:25:56;7.00;99.90
4693;DHT22;11710;48.024;16.296;2022-11-20T15:28:29;7.00;99.90
4693;DHT22;11710;48.024;16.296;2022-11-20T15:30:59;6.90;99.90
4693;DHT22;11710;48.024;16.296;2022-11-20T15:33:28;6.80;99.90
4693;DHT22;11710;48.024;16.296;2022-11-20T15:35:55;6.70;99.90
4693;DHT22;11710;48.024;16.296;2022-11-20T15:38:23;6.60;99.90
4693;DHT22;11710;48.024;16.296;2022-11-20T15:40:50;6.50;99.90
4693;DHT22;11710;48.024;16.296;2022-11-20T15:43:17;6.40;99.90
4693;DHT22;11710;48.024;16.296;2022-11-20T15:45:46;6.30;99.90
4693;DHT22;11710;48.024;16.296;2022-11-20T15:48:18;6.20;99.90
4693;DHT22;11710;48.024;16.296;2022-11-20T15:50:52;6.10;99.90
4693;DHT22;11710;48.024;16.296;2022-11-20T15:53:19;6.10;99.90
4693;DHT22;11710;48.024;16.296;2022-11-20T15:55:46;6.00;99.90
4693;DHT22;11710;48.024;16.296;2022-11-20T15:58:13;5.90;99.90
4693;DHT22;11710;48.024;16.296;2022-11-20T16:00:42;5.90;99.90
4693;DHT22;11710;48.024;16.296;2022-11-20T16:03:11;5.80;99.90
4693;DHT22;11710;48.024;16.296;2022-11-20T16:05:39;5.70;99.90
4693;DHT22;11710;48.024;16.296;2022-11-20T16:08:07;5.70;99.90
4693;DHT22;11710;48.024;16.296;2022-11-20T16:10:34;5.60;99.90
4693;DHT22;11710;48.024;16.296;2022-11-20T16:13:01;5.50;99.90
4693;DHT22;11710;48.024;16.296;2022-11-20T16:15:51;5.40;99.90
4693;DHT22;11710;48.024;16.296;2022-11-20T16:18:20;5.40;99.90
4693;DHT22;11710;48.024;16.296;2022-11-20T16:20:51;5.30;99.90
4693;DHT22;11710;48.024;16.296;2022-11-20T16:23:20;5.30;99.90
4693;DHT22;11710;48.024;16.296;2022-11-20T16:25:48;5.20;99.90
4693;DHT22;11710;48.024;16.296;2022-11-20T16:28:15;5.20;99.90
4693;DHT22;11710;48.024;16.296;2022-11-20T16:30:42;5.20;99.90
4693;DHT22;11710;48.024;16.296;2022-11-20T16:33:12;5.20;99.90
4693;DHT22;11710;48.024;16.296;2022-11-20T16:35:39;5.10;99.90
4693;DHT22;11710;48.024;16.296;2022-11-20T16:38:08;5.00;99.90
4693;DHT22;11710;48.024;16.296;2022-11-20T16:40:35;4.90;99.90
4693;DHT22;11710;48.024;16.296;2022-11-20T16:43:08;4.90;99.90
4693;DHT22;11710;48.024;16.296;2022-11-20T16:45:41;4.80;99.90
4693;DHT22;11710;48.024;16.296;2022-11-20T16:48:12;4.80;99.90
4693;DHT22;11710;48.024;16.296;2022-11-20T16:50:45;4.70;99.90
4693;DHT22;11710;48.024;16.296;2022-11-20T16:53:15;4.70;99.90
4693;DHT22;11710;48.024;16.296;2022-11-20T16:55:42;4.60;99.90
4693;DHT22;11710;48.024;16.296;2022-11-20T16:58:09;4.50;99.90
4693;DHT22;11710;48.024;16.296;2022-11-20T17:00:36;4.50;99.90
4693;DHT22;11710;48.024;16.296;2022-11-20T17:03:04;4.50;99.90
4693;DHT22;11710;48.024;16.296;2022-11-20T17:05:32;4.50;99.90
4693;DHT22;11710;48.024;16.296;2022-11-20T17:08:00;4.50;99.90
4693;DHT22;11710;48.024;16.296;2022-11-20T17:10:29;4.50;99.90
4693;DHT22;11710;48.024;16.296;2022-11-20T17:12:56;4.50;99.90
4693;DHT22;11710;48.024;16.296;2022-11-20T17:15:23;4.50;99.90
4693;DHT22;11710;48.024;16.296;2022-11-20T17:17:50;4.50;99.90
4693;DHT22;11710;48.024;16.296;2022-11-20T17:20:17;4.40;99.90
4693;DHT22;11710;48.024;16.296;2022-11-20T17:22:44;4.40;99.90
4693;DHT22;11710;48.024;16.296;2022-11-20T17:25:11;4.40;99.90
4693;DHT22;11710;48.024;16.296;2022-11-20T17:27:39;4.40;99.90
4693;DHT22;11710;48.024;16.296;2022-11-20T17:30:07;4.40;99.90
4693;DHT22;11710;48.024;16.296;2022-11-20T17:32:35;4.30;99.90
4693;DHT22;11710;48.024;16.296;2022-11-20T17:35:02;4.30;99.90
4693;DHT22;11710;48.024;16.296;2022-11-20T17:37:29;4.30;99.90
4693;DHT22;11710;48.024;16.296;2022-11-20T17:39:56;4.20;99.90
4693;DHT22;11710;48.024;16.296;2022-11-20T17:42:23;4.20;99.90
4693;DHT22;11710;48.024;16.296;2022-11-20T17:44:56;4.10;99.90
4693;DHT22;11710;48.024;16.296;2022-11-20T17:47:24;4.10;99.90
4693;DHT22;11710;48.024;16.296;2022-11-20T17:49:51;4.10;99.90
4693;DHT22;11710;48.024;16.296;2022-11-20T17:52:20;4.10;99.90
4693;DHT22;11710;48.024;16.296;2022-11-20T17:54:48;4.10;99.90
4693;DHT22;11710;48.024;16.296;2022-11-20T17:57:17;4.10;99.90
4693;DHT22;11710;48.024;16.296;2022-11-20T18:00:03;4.10;99.90
4693;DHT22;11710;48.024;16.296;2022-11-20T18:02:30;4.20;99.90
4693;DHT22;11710;48.024;16.296;2022-11-20T18:05:00;4.20;99.90
4693;DHT22;11710;48.024;16.296;2022-11-20T18:07:34;4.20;99.90
4693;DHT22;11710;48.024;16.296;2022-11-20T18:10:05;4.30;99.90
4693;DHT22;11710;48.024;16.296;2022-11-20T18:12:33;4.30;99.90
4693;DHT22;11710;48.024;16.296;2022-11-20T18:15:00;4.30;99.90
4693;DHT22;11710;48.024;16.296;2022-11-20T18:17:28;4.30;99.90
4693;DHT22;11710;48.024;16.296;2022-11-20T18:19:56;4.30;99.90
4693;DHT22;11710;48.024;16.296;2022-11-20T18:22:23;4.20;99.90
4693;DHT22;11710;48.024;16.296;2022-11-20T18:24:50;4.20;99.90
4693;DHT22;11710;48.024;16.296;2022-11-20T18:27:18;4.10;99.90
4693;DHT22;11710;48.024;16.296;2022-11-20T18:29:46;4.10;99.90
4693;DHT22;11710;48.024;16.296;2022-11-20T18:32:16;4.10;99.90
4693;DHT22;11710;48.024;16.296;2022-11-20T18:34:45;4.00;99.90
4693;DHT22;11710;48.024;16.296;2022-11-20T18:37:12;4.00;99.90
4693;DHT22;11710;48.024;16.296;2022-11-20T18:39:41;4.00;99.90
4693;DHT22;11710;48.024;16.296;2022-11-20T18:42:11;3.90;99.90
4693;DHT22;11710;48.024;16.296;2022-11-20T18:44:55;3.90;99.90
4693;DHT22;11710;48.024;16.296;2022-11-20T18:47:27;3.80;99.90
4693;DHT22;11710;48.024;16.296;2022-11-20T18:49:57;3.80;99.90
4693;DHT22;11710;48.024;16.296;2022-11-20T18:52:27;3.80;99.90
4693;DHT22;11710;48.024;16.296;2022-11-20T18:54:54;3.80;99.90
4693;DHT22;11710;48.024;16.296;2022-11-20T18:57:24;3.80;99.90
4693;DHT22;11710;48.024;16.296;2022-11-20T18:59:52;3.70;99.90
4693;DHT22;11710;48.024;16.296;2022-11-20T19:02:21;3.70;99.90
4693;DHT22;11710;48.024;16.296;2022-11-20T19:04:48;3.70;99.90
4693;DHT22;11710;48.024;16.296;2022-11-20T19:07:17;3.60;99.90
4693;DHT22;11710;48.024;16.296;2022-11-20T19:09:47;3.50;99.90
4693;DHT22;11710;48.024;16.296;2022-11-20T19:12:15;3.50;99.90
4693;DHT22;11710;48.024;16.296;2022-11-20T19:14:42;3.40;99.90
4693;DHT22;11710;48.024;16.296;2022-11-20T19:17:09;3.30;99.90
4693;DHT22;11710;48.024;16.296;2022-11-20T19:19:38;3.30;99.90
4693;DHT22;11710;48.024;16.296;2022-11-20T19:22:05;3.30;99.90
4693;DHT22;11710;48.024;16.296;2022-11-20T19:24:34;3.20;99.90
4693;DHT22;11710;48.024;16.296;2022-11-20T19:27:01;3.20;99.90
4693;DHT22;11710;48.024;16.296;2022-11-20T19:29:28;3.20;99.90
4693;DHT22;11710;48.024;16.296;2022-11-20T19:31:56;3.10;99.90
4693;DHT22;11710;48.024;16.296;2022-11-20T19:34:23;3.10;99.90
4693;DHT22;11710;48.024;16.296;2022-11-20T19:36:51;3.00;99.90
4693;DHT22;11710;48.024;16.296;2022-11-20T19:39:18;3.00;99.90
4693;DHT22;11710;48.024;16.296;2022-11-20T19:41:47;3.00;99.90
4693;DHT22;11710;48.024;16.296;2022-11-20T19:44:15;2.90;99.90
4693;DHT22;11710;48.024;16.296;2022-11-20T19:46:42;2.80;99.90
4693;DHT22;11710;48.024;16.296;2022-11-20T19:49:12;2.80;99.90
4693;DHT22;11710;48.024;16.296;2022-11-20T19:51:44;2.80;99.90
4693;DHT22;11710;48.024;16.296;2022-11-20T19:54:11;2.90;99.90
4693;DHT22;11710;48.024;16.296;2022-11-20T19:56:38;2.90;99.90
4693;DHT22;11710;48.024;16.296;2022-11-20T19:59:06;2.90;99.90
4693;DHT22;11710;48.024;16.296;2022-11-20T20:01:33;2.90;99.90
4693;DHT22;11710;48.024;16.296;2022-11-20T20:04:01;2.90;99.90
4693;DHT22;11710;48.024;16.296;2022-11-20T20:06:31;2.90;99.90
4693;DHT22;11710;48.024;16.296;2022-11-20T20:09:03;2.90;99.90
4693;DHT22;11710;48.024;16.296;2022-11-20T20:11:31;2.90;99.90
4693;DHT22;11710;48.024;16.296;2022-11-20T20:14:00;2.80;99.90
4693;DHT22;11710;48.024;16.296;2022-11-20T20:16:28;2.70;99.90
4693;DHT22;11710;48.024;16.296;2022-11-20T20:18:56;2.60;99.90
4693;DHT22;11710;48.024;16.296;2022-11-20T20:21:25;2.60;99.90
4693;DHT22;11710;48.024;16.296;2022-11-20T20:23:53;2.60;99.90
4693;DHT22;11710;48.024;16.296;2022-11-20T20:26:21;2.60;99.90
4693;DHT22;11710;48.024;16.296;2022-11-20T20:28:49;2.60;99.90
4693;DHT22;11710;48.024;16.296;2022-11-20T20:31:19;2.60;99.90
4693;DHT22;11710;48.024;16.296;2022-11-20T20:33:48;2.60;99.90
4693;DHT22;11710;48.024;16.296;2022-11-20T20:36:16;2.60;99.90
4693;DHT22;11710;48.024;16.296;2022-11-20T20:38:44;2.60;99.90
4693;DHT22;11710;48.024;16.296;2022-11-20T20:41:11;2.70;99.90
4693;DHT22;11710;48.024;16.296;2022-11-20T20:43:39;2.70;99.90
4693;DHT22;11710;48.024;16.296;2022-11-20T20:46:24;2.70;99.90
4693;DHT22;11710;48.024;16.296;2022-11-20T20:48:53;2.60;99.90
4693;DHT22;11710;48.024;16.296;2022-11-20T20:51:20;2.50;99.90
4693;DHT22;11710;48.024;16.296;2022-11-20T20:53:47;2.40;99.90
4693;DHT22;11710;48.024;16.296;2022-11-20T20:56:14;2.30;99.90
4693;DHT22;11710;48.024;16.296;2022-11-20T20:58:42;2.20;99.90
4693;DHT22;11710;48.024;16.296;2022-11-20T21:01:10;2.10;99.90
4693;DHT22;11710;48.024;16.296;2022-11-20T21:03:38;2.10;99.90
4693;DHT22;11710;48.024;16.296;2022-11-20T21:06:07;2.10;99.90
4693;DHT22;11710;48.024;16.296;2022-11-20T21:08:36;2.00;99.90
4693;DHT22;11710;48.024;16.296;2022-11-20T21:11:05;2.10;99.90
4693;DHT22;11710;48.024;16.296;2022-11-20T21:13:34;2.10;99.90
4693;DHT22;11710;48.024;16.296;2022-11-20T21:16:01;2.10;99.90
4693;DHT22;11710;48.024;16.296;2022-11-20T21:18:28;2.20;99.90
4693;DHT22;11710;48.024;16.296;2022-11-20T21:20:55;2.20;99.90
4693;DHT22;11710;48.024;16.296;2022-11-20T21:23:44;2.20;99.90
4693;DHT22;11710;48.024;16.296;2022-11-20T21:26:12;2.20;99.90
4693;DHT22;11710;48.024;16.296;2022-11-20T21:28:39;2.30;99.90
4693;DHT22;11710;48.024;16.296;2022-11-20T21:31:07;2.30;99.90
